sensor_id;sensor_type;location;lat;lon;timestamp;P1;durP1;ratioP1;P2;durP2;ratioP2
15142;SDS011;7672;50.834;6.286;2023-09-07T00:01:18;6.20;;;5.70;;
15142;SDS011;7672;50.834;6.286;2023-09-07T00:03:46;5.27;;;4.87;;
15142;SDS011;7672;50.834;6.286;2023-09-07T00:06:13;5.93;;;5.33;;
15142;SDS011;7672;50.834;6.286;2023-09-07T00:08:40;6.00;;;5.40;;
15142;SDS011;7672;50.834;6.286;2023-09-07T00:11:08;11.30;;;6.27;;
15142;SDS011;7672;50.834;6.286;2023-09-07T00:13:36;10.47;;;7.97;;
15142;SDS011;7672;50.834;6.286;2023-09-07T00:16:04;5.57;;;5.07;;
15142;SDS011;7672;50.834;6.286;2023-09-07T00:18:32;8.80;;;5.17;;
15142;SDS011;7672;50.834;6.286;2023-09-07T00:21:00;7.67;;;5.50;;
15142;SDS011;7672;50.834;6.286;2023-09-07T00:23:28;7.10;;;6.17;;
15142;SDS011;7672;50.834;6.286;2023-09-07T00:25:55;5.60;;;5.10;;
15142;SDS011;7672;50.834;6.286;2023-09-07T00:28:23;6.13;;;5.40;;
15142;SDS011;7672;50.834;6.286;2023-09-07T00:30:50;5.33;;;4.90;;
15142;SDS011;7672;50.834;6.286;2023-09-07T00:33:17;9.37;;;6.20;;
15142;SDS011;7672;50.834;6.286;2023-09-07T00:35:44;8.20;;;6.97;;
15142;SDS011;7672;50.834;6.286;2023-09-07T00:38:11;5.93;;;5.33;;
15142;SDS011;7672;50.834;6.286;2023-09-07T00:40:42;5.53;;;4.77;;
15142;SDS011;7672;50.834;6.286;2023-09-07T00:43:11;5.93;;;5.40;;
15142;SDS011;7672;50.834;6.286;2023-09-07T00:45:39;6.13;;;5.53;;
15142;SDS011;7672;50.834;6.286;2023-09-07T00:48:07;6.10;;;5.30;;
15142;SDS011;7672;50.834;6.286;2023-09-07T00:50:34;6.67;;;5.23;;
15142;SDS011;7672;50.834;6.286;2023-09-07T00:53:02;7.30;;;6.40;;
15142;SDS011;7672;50.834;6.286;2023-09-07T00:55:30;9.77;;;6.57;;
15142;SDS011;7672;50.834;6.286;2023-09-07T00:58:00;6.77;;;6.00;;
15142;SDS011;7672;50.834;6.286;2023-09-07T01:00:29;9.10;;;6.57;;
15142;SDS011;7672;50.834;6.286;2023-09-07T01:02:57;8.30;;;6.73;;
15142;SDS011;7672;50.834;6.286;2023-09-07T01:05:27;13.20;;;6.33;;
15142;SDS011;7672;50.834;6.286;2023-09-07T01:08:23;7.23;;;5.77;;
15142;SDS011;7672;50.834;6.286;2023-09-07T01:11:01;6.03;;;5.43;;
15142;SDS011;7672;50.834;6.286;2023-09-07T01:13:38;17.97;;;11.03;;
15142;SDS011;7672;50.834;6.286;2023-09-07T01:16:06;29.27;;;16.67;;
15142;SDS011;7672;50.834;6.286;2023-09-07T01:18:35;24.50;;;14.47;;
15142;SDS011;7672;50.834;6.286;2023-09-07T01:21:07;19.50;;;11.87;;
15142;SDS011;7672;50.834;6.286;2023-09-07T01:23:37;14.23;;;8.77;;
15142;SDS011;7672;50.834;6.286;2023-09-07T01:26:09;11.67;;;7.40;;
15142;SDS011;7672;50.834;6.286;2023-09-07T01:28:37;9.43;;;7.57;;
15142;SDS011;7672;50.834;6.286;2023-09-07T01:31:05;9.40;;;6.63;;
15142;SDS011;7672;50.834;6.286;2023-09-07T01:33:33;11.60;;;7.17;;
15142;SDS011;7672;50.834;6.286;2023-09-07T01:36:00;6.90;;;6.07;;
15142;SDS011;7672;50.834;6.286;2023-09-07T01:38:28;8.10;;;5.83;;
15142;SDS011;7672;50.834;6.286;2023-09-07T01:40:56;6.67;;;5.93;;
15142;SDS011;7672;50.834;6.286;2023-09-07T01:43:23;6.77;;;6.17;;
15142;SDS011;7672;50.834;6.286;2023-09-07T01:45:51;8.47;;;6.10;;
15142;SDS011;7672;50.834;6.286;2023-09-07T01:48:18;8.50;;;6.60;;
15142;SDS011;7672;50.834;6.286;2023-09-07T01:50:45;6.40;;;5.80;;
15142;SDS011;7672;50.834;6.286;2023-09-07T01:53:13;6.70;;;6.07;;
15142;SDS011;7672;50.834;6.286;2023-09-07T01:55:40;9.63;;;5.50;;
15142;SDS011;7672;50.834;6.286;2023-09-07T01:58:07;9.80;;;5.57;;
15142;SDS011;7672;50.834;6.286;2023-09-07T02:00:37;6.23;;;5.70;;
15142;SDS011;7672;50.834;6.286;2023-09-07T02:03:06;5.90;;;5.30;;
15142;SDS011;7672;50.834;6.286;2023-09-07T02:05:33;8.90;;;5.47;;
15142;SDS011;7672;50.834;6.286;2023-09-07T02:08:00;6.97;;;5.70;;
15142;SDS011;7672;50.834;6.286;2023-09-07T02:10:27;7.43;;;5.60;;
15142;SDS011;7672;50.834;6.286;2023-09-07T02:12:54;7.60;;;5.63;;
15142;SDS011;7672;50.834;6.286;2023-09-07T02:15:23;6.60;;;5.47;;
15142;SDS011;7672;50.834;6.286;2023-09-07T02:17:50;10.20;;;5.20;;
15142;SDS011;7672;50.834;6.286;2023-09-07T02:20:20;5.70;;;5.20;;
15142;SDS011;7672;50.834;6.286;2023-09-07T02:22:48;6.03;;;5.43;;
15142;SDS011;7672;50.834;6.286;2023-09-07T02:25:16;6.53;;;5.93;;
15142;SDS011;7672;50.834;6.286;2023-09-07T02:27:43;7.67;;;5.57;;
15142;SDS011;7672;50.834;6.286;2023-09-07T02:30:10;5.80;;;5.30;;
15142;SDS011;7672;50.834;6.286;2023-09-07T02:32:38;6.20;;;5.40;;
15142;SDS011;7672;50.834;6.286;2023-09-07T02:35:09;5.83;;;5.33;;
15142;SDS011;7672;50.834;6.286;2023-09-07T02:37:38;5.80;;;5.13;;
15142;SDS011;7672;50.834;6.286;2023-09-07T02:40:06;6.33;;;5.20;;
15142;SDS011;7672;50.834;6.286;2023-09-07T02:42:36;6.87;;;6.10;;
15142;SDS011;7672;50.834;6.286;2023-09-07T02:45:04;6.73;;;5.90;;
15142;SDS011;7672;50.834;6.286;2023-09-07T02:47:32;6.80;;;6.13;;
15142;SDS011;7672;50.834;6.286;2023-09-07T02:49:59;7.77;;;6.97;;
15142;SDS011;7672;50.834;6.286;2023-09-07T02:52:28;7.20;;;6.50;;
15142;SDS011;7672;50.834;6.286;2023-09-07T02:54:55;7.30;;;6.20;;
15142;SDS011;7672;50.834;6.286;2023-09-07T02:57:23;6.93;;;6.23;;
15142;SDS011;7672;50.834;6.286;2023-09-07T02:59:50;7.60;;;6.23;;
15142;SDS011;7672;50.834;6.286;2023-09-07T03:02:19;10.33;;;6.50;;
15142;SDS011;7672;50.834;6.286;2023-09-07T03:04:47;6.57;;;5.87;;
15142;SDS011;7672;50.834;6.286;2023-09-07T03:07:14;9.13;;;6.50;;
15142;SDS011;7672;50.834;6.286;2023-09-07T03:09:41;7.00;;;6.30;;
15142;SDS011;7672;50.834;6.286;2023-09-07T03:12:09;6.43;;;5.67;;
15142;SDS011;7672;50.834;6.286;2023-09-07T03:14:36;7.90;;;6.37;;
15142;SDS011;7672;50.834;6.286;2023-09-07T03:17:03;9.10;;;6.30;;
15142;SDS011;7672;50.834;6.286;2023-09-07T03:19:31;7.47;;;5.87;;
15142;SDS011;7672;50.834;6.286;2023-09-07T03:21:59;7.87;;;6.40;;
15142;SDS011;7672;50.834;6.286;2023-09-07T03:24:26;8.80;;;6.17;;
15142;SDS011;7672;50.834;6.286;2023-09-07T03:26:54;8.33;;;6.57;;
15142;SDS011;7672;50.834;6.286;2023-09-07T03:29:21;6.87;;;6.27;;
15142;SDS011;7672;50.834;6.286;2023-09-07T03:31:49;8.23;;;6.57;;
15142;SDS011;7672;50.834;6.286;2023-09-07T03:34:16;8.27;;;7.10;;
15142;SDS011;7672;50.834;6.286;2023-09-07T03:36:43;7.77;;;6.40;;
15142;SDS011;7672;50.834;6.286;2023-09-07T03:39:10;9.97;;;7.00;;
15142;SDS011;7672;50.834;6.286;2023-09-07T03:41:37;9.40;;;7.13;;
15142;SDS011;7672;50.834;6.286;2023-09-07T03:44:05;8.67;;;6.60;;
15142;SDS011;7672;50.834;6.286;2023-09-07T03:46:32;7.37;;;5.97;;
15142;SDS011;7672;50.834;6.286;2023-09-07T03:48:59;7.83;;;5.70;;
15142;SDS011;7672;50.834;6.286;2023-09-07T03:51:27;7.00;;;6.30;;
15142;SDS011;7672;50.834;6.286;2023-09-07T03:53:57;6.23;;;5.63;;
15142;SDS011;7672;50.834;6.286;2023-09-07T03:56:26;6.47;;;5.73;;
15142;SDS011;7672;50.834;6.286;2023-09-07T03:58:53;6.37;;;5.80;;
15142;SDS011;7672;50.834;6.286;2023-09-07T04:01:20;7.90;;;5.87;;
15142;SDS011;7672;50.834;6.286;2023-09-07T04:03:47;6.13;;;5.03;;
15142;SDS011;7672;50.834;6.286;2023-09-07T04:06:14;9.80;;;5.67;;
15142;SDS011;7672;50.834;6.286;2023-09-07T04:08:41;8.43;;;5.77;;
15142;SDS011;7672;50.834;6.286;2023-09-07T04:11:08;6.13;;;5.43;;
15142;SDS011;7672;50.834;6.286;2023-09-07T04:13:35;6.90;;;5.90;;
15142;SDS011;7672;50.834;6.286;2023-09-07T04:16:02;6.57;;;5.07;;
15142;SDS011;7672;50.834;6.286;2023-09-07T04:18:30;6.90;;;5.43;;
15142;SDS011;7672;50.834;6.286;2023-09-07T04:21:04;9.63;;;5.77;;
15142;SDS011;7672;50.834;6.286;2023-09-07T04:23:33;6.40;;;5.70;;
15142;SDS011;7672;50.834;6.286;2023-09-07T04:26:08;10.03;;;5.40;;
15142;SDS011;7672;50.834;6.286;2023-09-07T04:28:37;9.57;;;5.13;;
15142;SDS011;7672;50.834;6.286;2023-09-07T04:31:06;6.03;;;5.53;;
15142;SDS011;7672;50.834;6.286;2023-09-07T04:33:33;7.60;;;5.83;;
15142;SDS011;7672;50.834;6.286;2023-09-07T04:36:11;6.67;;;5.97;;
15142;SDS011;7672;50.834;6.286;2023-09-07T04:38:43;6.83;;;6.10;;
15142;SDS011;7672;50.834;6.286;2023-09-07T04:41:11;7.63;;;6.37;;
15142;SDS011;7672;50.834;6.286;2023-09-07T04:43:41;6.53;;;5.93;;
15142;SDS011;7672;50.834;6.286;2023-09-07T04:46:12;6.27;;;5.73;;
15142;SDS011;7672;50.834;6.286;2023-09-07T04:48:41;6.97;;;6.27;;
15142;SDS011;7672;50.834;6.286;2023-09-07T04:51:09;8.37;;;5.73;;
15142;SDS011;7672;50.834;6.286;2023-09-07T04:53:39;9.70;;;6.37;;
15142;SDS011;7672;50.834;6.286;2023-09-07T04:56:07;6.03;;;5.47;;
15142;SDS011;7672;50.834;6.286;2023-09-07T04:58:36;7.47;;;5.47;;
15142;SDS011;7672;50.834;6.286;2023-09-07T05:01:04;6.47;;;5.73;;
15142;SDS011;7672;50.834;6.286;2023-09-07T05:03:33;7.20;;;5.83;;
15142;SDS011;7672;50.834;6.286;2023-09-07T05:06:01;6.10;;;5.60;;
15142;SDS011;7672;50.834;6.286;2023-09-07T05:08:30;6.27;;;5.70;;
15142;SDS011;7672;50.834;6.286;2023-09-07T05:10:59;7.27;;;5.80;;
15142;SDS011;7672;50.834;6.286;2023-09-07T05:13:29;6.23;;;5.63;;
15142;SDS011;7672;50.834;6.286;2023-09-07T05:15:59;6.90;;;5.53;;
15142;SDS011;7672;50.834;6.286;2023-09-07T05:18:27;6.93;;;5.10;;
15142;SDS011;7672;50.834;6.286;2023-09-07T05:20:55;6.33;;;5.73;;
15142;SDS011;7672;50.834;6.286;2023-09-07T05:23:22;6.17;;;5.33;;
15142;SDS011;7672;50.834;6.286;2023-09-07T05:25:52;6.10;;;5.30;;
15142;SDS011;7672;50.834;6.286;2023-09-07T05:28:23;6.77;;;6.17;;
15142;SDS011;7672;50.834;6.286;2023-09-07T05:30:53;7.77;;;6.47;;
15142;SDS011;7672;50.834;6.286;2023-09-07T05:33:21;8.37;;;6.17;;
15142;SDS011;7672;50.834;6.286;2023-09-07T05:35:49;7.00;;;6.27;;
15142;SDS011;7672;50.834;6.286;2023-09-07T05:38:16;9.03;;;6.57;;
15142;SDS011;7672;50.834;6.286;2023-09-07T05:40:44;8.50;;;6.83;;
15142;SDS011;7672;50.834;6.286;2023-09-07T05:43:12;8.13;;;7.07;;
15142;SDS011;7672;50.834;6.286;2023-09-07T05:45:39;9.97;;;7.33;;
15142;SDS011;7672;50.834;6.286;2023-09-07T05:48:10;7.27;;;6.57;;
15142;SDS011;7672;50.834;6.286;2023-09-07T05:50:37;7.97;;;6.67;;
15142;SDS011;7672;50.834;6.286;2023-09-07T05:53:06;8.37;;;6.97;;
15142;SDS011;7672;50.834;6.286;2023-09-07T05:55:34;8.83;;;6.30;;
15142;SDS011;7672;50.834;6.286;2023-09-07T05:58:06;7.57;;;6.87;;
15142;SDS011;7672;50.834;6.286;2023-09-07T06:00:39;6.90;;;6.30;;
15142;SDS011;7672;50.834;6.286;2023-09-07T06:03:07;9.93;;;6.87;;
15142;SDS011;7672;50.834;6.286;2023-09-07T06:05:36;8.93;;;7.60;;
15142;SDS011;7672;50.834;6.286;2023-09-07T06:08:07;10.97;;;6.87;;
15142;SDS011;7672;50.834;6.286;2023-09-07T06:10:34;11.13;;;7.17;;
15142;SDS011;7672;50.834;6.286;2023-09-07T06:13:03;9.63;;;6.57;;
15142;SDS011;7672;50.834;6.286;2023-09-07T06:15:31;7.57;;;6.33;;
15142;SDS011;7672;50.834;6.286;2023-09-07T06:17:58;10.17;;;6.83;;
15142;SDS011;7672;50.834;6.286;2023-09-07T06:20:26;7.23;;;6.30;;
15142;SDS011;7672;50.834;6.286;2023-09-07T06:22:55;8.00;;;6.40;;
15142;SDS011;7672;50.834;6.286;2023-09-07T06:25:22;8.17;;;6.33;;
15142;SDS011;7672;50.834;6.286;2023-09-07T06:27:50;7.40;;;6.70;;
15142;SDS011;7672;50.834;6.286;2023-09-07T06:30:18;7.97;;;6.23;;
15142;SDS011;7672;50.834;6.286;2023-09-07T06:32:46;7.05;;;5.80;;
15142;SDS011;7672;50.834;6.286;2023-09-07T06:35:15;7.83;;;6.20;;
15142;SDS011;7672;50.834;6.286;2023-09-07T06:37:42;9.90;;;5.93;;
15142;SDS011;7672;50.834;6.286;2023-09-07T06:40:11;8.55;;;5.70;;
15142;SDS011;7672;50.834;6.286;2023-09-07T06:42:41;7.28;;;5.88;;
15142;SDS011;7672;50.834;6.286;2023-09-07T06:45:13;7.78;;;5.47;;
15142;SDS011;7672;50.834;6.286;2023-09-07T06:47:40;5.80;;;5.25;;
15142;SDS011;7672;50.834;6.286;2023-09-07T06:50:09;7.75;;;5.50;;
15142;SDS011;7672;50.834;6.286;2023-09-07T06:52:37;6.18;;;5.50;;
15142;SDS011;7672;50.834;6.286;2023-09-07T06:55:05;5.65;;;5.05;;
15142;SDS011;7672;50.834;6.286;2023-09-07T06:57:33;6.47;;;5.80;;
15142;SDS011;7672;50.834;6.286;2023-09-07T07:00:01;7.82;;;5.75;;
15142;SDS011;7672;50.834;6.286;2023-09-07T07:02:33;9.50;;;5.45;;
15142;SDS011;7672;50.834;6.286;2023-09-07T07:05:01;7.65;;;6.18;;
15142;SDS011;7672;50.834;6.286;2023-09-07T07:07:29;7.90;;;6.47;;
15142;SDS011;7672;50.834;6.286;2023-09-07T07:09:57;8.32;;;6.22;;
15142;SDS011;7672;50.834;6.286;2023-09-07T07:12:24;6.75;;;5.95;;
15142;SDS011;7672;50.834;6.286;2023-09-07T07:14:52;7.38;;;6.05;;
15142;SDS011;7672;50.834;6.286;2023-09-07T07:17:20;6.75;;;6.10;;
15142;SDS011;7672;50.834;6.286;2023-09-07T07:19:49;9.00;;;5.80;;
15142;SDS011;7672;50.834;6.286;2023-09-07T07:22:17;7.30;;;5.43;;
15142;SDS011;7672;50.834;6.286;2023-09-07T07:24:48;7.38;;;6.22;;
15142;SDS011;7672;50.834;6.286;2023-09-07T07:27:16;6.20;;;5.68;;
15142;SDS011;7672;50.834;6.286;2023-09-07T07:29:43;9.18;;;5.72;;
15142;SDS011;7672;50.834;6.286;2023-09-07T07:32:11;6.50;;;5.97;;
15142;SDS011;7672;50.834;6.286;2023-09-07T07:34:39;6.40;;;5.90;;
15142;SDS011;7672;50.834;6.286;2023-09-07T07:37:06;7.20;;;5.90;;
15142;SDS011;7672;50.834;6.286;2023-09-07T07:39:33;8.00;;;6.50;;
15142;SDS011;7672;50.834;6.286;2023-09-07T07:42:00;10.43;;;6.70;;
15142;SDS011;7672;50.834;6.286;2023-09-07T07:44:29;8.57;;;6.60;;
15142;SDS011;7672;50.834;6.286;2023-09-07T07:46:57;7.30;;;6.57;;
15142;SDS011;7672;50.834;6.286;2023-09-07T07:49:24;7.90;;;6.40;;
15142;SDS011;7672;50.834;6.286;2023-09-07T07:51:51;6.90;;;6.25;;
15142;SDS011;7672;50.834;6.286;2023-09-07T07:54:21;6.70;;;6.00;;
15142;SDS011;7672;50.834;6.286;2023-09-07T07:56:52;7.10;;;6.35;;
15142;SDS011;7672;50.834;6.286;2023-09-07T07:59:19;5.95;;;5.32;;
15142;SDS011;7672;50.834;6.286;2023-09-07T08:01:49;5.63;;;5.22;;
15142;SDS011;7672;50.834;6.286;2023-09-07T08:04:16;8.15;;;5.47;;
15142;SDS011;7672;50.834;6.286;2023-09-07T08:06:43;6.47;;;5.85;;
15142;SDS011;7672;50.834;6.286;2023-09-07T08:09:10;6.50;;;5.70;;
15142;SDS011;7672;50.834;6.286;2023-09-07T08:11:40;7.72;;;4.93;;
15142;SDS011;7672;50.834;6.286;2023-09-07T08:14:07;5.85;;;5.45;;
15142;SDS011;7672;50.834;6.286;2023-09-07T08:16:34;6.93;;;5.50;;
15142;SDS011;7672;50.834;6.286;2023-09-07T08:19:01;5.88;;;5.38;;
15142;SDS011;7672;50.834;6.286;2023-09-07T08:21:30;8.57;;;5.22;;
15142;SDS011;7672;50.834;6.286;2023-09-07T08:23:57;5.72;;;5.13;;
15142;SDS011;7672;50.834;6.286;2023-09-07T08:26:25;6.97;;;4.43;;
15142;SDS011;7672;50.834;6.286;2023-09-07T08:28:52;5.35;;;4.85;;
15142;SDS011;7672;50.834;6.286;2023-09-07T08:31:19;5.53;;;5.03;;
15142;SDS011;7672;50.834;6.286;2023-09-07T08:33:49;5.63;;;5.00;;
15142;SDS011;7672;50.834;6.286;2023-09-07T08:36:21;7.65;;;5.20;;
15142;SDS011;7672;50.834;6.286;2023-09-07T08:38:50;4.68;;;4.38;;
15142;SDS011;7672;50.834;6.286;2023-09-07T08:41:20;7.90;;;4.53;;
15142;SDS011;7672;50.834;6.286;2023-09-07T08:43:48;6.28;;;4.70;;
15142;SDS011;7672;50.834;6.286;2023-09-07T08:46:20;5.35;;;4.95;;
15142;SDS011;7672;50.834;6.286;2023-09-07T08:48:50;5.80;;;4.95;;
15142;SDS011;7672;50.834;6.286;2023-09-07T08:51:18;7.22;;;5.45;;
15142;SDS011;7672;50.834;6.286;2023-09-07T08:53:46;4.82;;;4.47;;
15142;SDS011;7672;50.834;6.286;2023-09-07T08:56:14;15.65;;;8.85;;
15142;SDS011;7672;50.834;6.286;2023-09-07T08:58:44;5.15;;;4.72;;
15142;SDS011;7672;50.834;6.286;2023-09-07T09:01:16;4.65;;;4.25;;
15142;SDS011;7672;50.834;6.286;2023-09-07T09:03:44;5.13;;;4.70;;
15142;SDS011;7672;50.834;6.286;2023-09-07T09:06:12;6.18;;;4.43;;
15142;SDS011;7672;50.834;6.286;2023-09-07T09:08:43;4.95;;;4.55;;
15142;SDS011;7672;50.834;6.286;2023-09-07T09:11:19;6.32;;;4.80;;
15142;SDS011;7672;50.834;6.286;2023-09-07T09:13:48;4.78;;;4.45;;
15142;SDS011;7672;50.834;6.286;2023-09-07T09:16:17;5.53;;;5.03;;
15142;SDS011;7672;50.834;6.286;2023-09-07T09:18:48;5.32;;;4.72;;
15142;SDS011;7672;50.834;6.286;2023-09-07T09:21:23;5.60;;;4.88;;
15142;SDS011;7672;50.834;6.286;2023-09-07T09:23:55;5.50;;;5.00;;
15142;SDS011;7672;50.834;6.286;2023-09-07T09:26:23;6.70;;;4.60;;
15142;SDS011;7672;50.834;6.286;2023-09-07T09:28:55;8.10;;;4.75;;
15142;SDS011;7672;50.834;6.286;2023-09-07T09:31:23;5.47;;;4.80;;
15142;SDS011;7672;50.834;6.286;2023-09-07T09:33:51;5.68;;;4.97;;
15142;SDS011;7672;50.834;6.286;2023-09-07T09:36:19;5.40;;;4.63;;
15142;SDS011;7672;50.834;6.286;2023-09-07T09:38:48;5.30;;;4.80;;
15142;SDS011;7672;50.834;6.286;2023-09-07T09:41:19;6.72;;;5.00;;
15142;SDS011;7672;50.834;6.286;2023-09-07T09:43:47;5.55;;;5.03;;
15142;SDS011;7672;50.834;6.286;2023-09-07T09:46:15;4.78;;;4.38;;
15142;SDS011;7672;50.834;6.286;2023-09-07T09:48:44;5.15;;;4.78;;
15142;SDS011;7672;50.834;6.286;2023-09-07T09:51:12;8.18;;;4.82;;
15142;SDS011;7672;50.834;6.286;2023-09-07T09:53:41;6.05;;;4.63;;
15142;SDS011;7672;50.834;6.286;2023-09-07T09:56:09;5.55;;;5.05;;
15142;SDS011;7672;50.834;6.286;2023-09-07T09:58:37;5.53;;;4.95;;
15142;SDS011;7672;50.834;6.286;2023-09-07T10:01:05;4.93;;;4.53;;
15142;SDS011;7672;50.834;6.286;2023-09-07T10:03:36;4.45;;;4.05;;
15142;SDS011;7672;50.834;6.286;2023-09-07T10:06:27;9.05;;;5.05;;
15142;SDS011;7672;50.834;6.286;2023-09-07T10:11:31;5.57;;;4.82;;
15142;SDS011;7672;50.834;6.286;2023-09-07T10:14:01;5.32;;;4.60;;
15142;SDS011;7672;50.834;6.286;2023-09-07T10:19:23;6.03;;;5.07;;
15142;SDS011;7672;50.834;6.286;2023-09-07T10:21:53;4.95;;;4.50;;
15142;SDS011;7672;50.834;6.286;2023-09-07T10:24:25;7.10;;;4.70;;
15142;SDS011;7672;50.834;6.286;2023-09-07T10:27:04;7.95;;;5.07;;
15142;SDS011;7672;50.834;6.286;2023-09-07T10:29:45;5.05;;;4.75;;
15142;SDS011;7672;50.834;6.286;2023-09-07T10:32:22;5.47;;;5.00;;
15142;SDS011;7672;50.834;6.286;2023-09-07T10:34:50;5.72;;;5.32;;
15142;SDS011;7672;50.834;6.286;2023-09-07T10:37:17;5.50;;;4.60;;
15142;SDS011;7672;50.834;6.286;2023-09-07T10:39:45;4.95;;;4.63;;
15142;SDS011;7672;50.834;6.286;2023-09-07T10:42:22;4.90;;;4.60;;
15142;SDS011;7672;50.834;6.286;2023-09-07T10:44:51;6.70;;;4.60;;
15142;SDS011;7672;50.834;6.286;2023-09-07T10:47:19;5.90;;;4.90;;
15142;SDS011;7672;50.834;6.286;2023-09-07T10:49:47;5.40;;;4.93;;
15142;SDS011;7672;50.834;6.286;2023-09-07T10:52:14;5.43;;;4.32;;
15142;SDS011;7672;50.834;6.286;2023-09-07T10:54:41;4.88;;;4.55;;
15142;SDS011;7672;50.834;6.286;2023-09-07T10:57:10;5.03;;;4.40;;
15142;SDS011;7672;50.834;6.286;2023-09-07T10:59:44;5.07;;;4.60;;
15142;SDS011;7672;50.834;6.286;2023-09-07T11:02:15;6.00;;;4.13;;
15142;SDS011;7672;50.834;6.286;2023-09-07T11:04:43;5.05;;;4.30;;
15142;SDS011;7672;50.834;6.286;2023-09-07T11:07:10;6.97;;;4.80;;
15142;SDS011;7672;50.834;6.286;2023-09-07T11:09:41;5.97;;;4.90;;
15142;SDS011;7672;50.834;6.286;2023-09-07T11:12:13;7.32;;;5.13;;
15142;SDS011;7672;50.834;6.286;2023-09-07T11:14:42;5.25;;;4.75;;
15142;SDS011;7672;50.834;6.286;2023-09-07T11:17:10;6.00;;;4.78;;
15142;SDS011;7672;50.834;6.286;2023-09-07T11:19:37;5.32;;;4.85;;
15142;SDS011;7672;50.834;6.286;2023-09-07T11:22:04;7.18;;;4.85;;
15142;SDS011;7672;50.834;6.286;2023-09-07T11:24:32;5.15;;;4.75;;
15142;SDS011;7672;50.834;6.286;2023-09-07T11:27:01;4.70;;;4.35;;
15142;SDS011;7672;50.834;6.286;2023-09-07T11:29:32;4.65;;;4.25;;
15142;SDS011;7672;50.834;6.286;2023-09-07T11:32:06;6.05;;;4.50;;
15142;SDS011;7672;50.834;6.286;2023-09-07T11:34:46;5.25;;;4.28;;
15142;SDS011;7672;50.834;6.286;2023-09-07T11:37:24;4.45;;;4.15;;
15142;SDS011;7672;50.834;6.286;2023-09-07T11:39:53;5.72;;;4.10;;
15142;SDS011;7672;50.834;6.286;2023-09-07T11:42:20;5.78;;;4.65;;
15142;SDS011;7672;50.834;6.286;2023-09-07T11:44:47;4.85;;;4.43;;
15142;SDS011;7672;50.834;6.286;2023-09-07T11:47:14;5.70;;;4.43;;
15142;SDS011;7672;50.834;6.286;2023-09-07T11:49:42;4.75;;;4.35;;
15142;SDS011;7672;50.834;6.286;2023-09-07T11:52:10;5.30;;;4.20;;
15142;SDS011;7672;50.834;6.286;2023-09-07T11:54:37;4.90;;;4.50;;
15142;SDS011;7672;50.834;6.286;2023-09-07T11:57:04;4.68;;;4.15;;
15142;SDS011;7672;50.834;6.286;2023-09-07T11:59:31;4.40;;;3.80;;
15142;SDS011;7672;50.834;6.286;2023-09-07T12:02:13;5.40;;;4.20;;
15142;SDS011;7672;50.834;6.286;2023-09-07T12:04:41;5.25;;;4.57;;
15142;SDS011;7672;50.834;6.286;2023-09-07T12:07:09;5.03;;;4.45;;
15142;SDS011;7672;50.834;6.286;2023-09-07T12:09:37;6.38;;;4.60;;
15142;SDS011;7672;50.834;6.286;2023-09-07T12:12:04;6.00;;;4.60;;
15142;SDS011;7672;50.834;6.286;2023-09-07T12:14:31;5.20;;;4.80;;
15142;SDS011;7672;50.834;6.286;2023-09-07T12:16:58;5.05;;;4.65;;
15142;SDS011;7672;50.834;6.286;2023-09-07T12:19:26;6.43;;;4.80;;
15142;SDS011;7672;50.834;6.286;2023-09-07T12:21:54;5.20;;;4.72;;
15142;SDS011;7672;50.834;6.286;2023-09-07T12:24:21;4.85;;;4.45;;
15142;SDS011;7672;50.834;6.286;2023-09-07T12:26:49;5.22;;;4.72;;
15142;SDS011;7672;50.834;6.286;2023-09-07T12:29:16;5.72;;;5.18;;
15142;SDS011;7672;50.834;6.286;2023-09-07T12:31:43;6.05;;;4.70;;
15142;SDS011;7672;50.834;6.286;2023-09-07T12:34:10;5.40;;;5.00;;
15142;SDS011;7672;50.834;6.286;2023-09-07T12:36:37;5.15;;;4.75;;
15142;SDS011;7672;50.834;6.286;2023-09-07T12:39:04;4.50;;;4.18;;
15142;SDS011;7672;50.834;6.286;2023-09-07T12:41:32;7.28;;;5.10;;
15142;SDS011;7672;50.834;6.286;2023-09-07T12:43:59;5.20;;;4.70;;
15142;SDS011;7672;50.834;6.286;2023-09-07T12:46:26;6.32;;;4.65;;
15142;SDS011;7672;50.834;6.286;2023-09-07T12:48:53;6.32;;;4.93;;
15142;SDS011;7672;50.834;6.286;2023-09-07T12:51:20;5.90;;;4.90;;
15142;SDS011;7672;50.834;6.286;2023-09-07T12:53:47;4.78;;;4.47;;
15142;SDS011;7672;50.834;6.286;2023-09-07T12:56:15;5.07;;;4.68;;
15142;SDS011;7672;50.834;6.286;2023-09-07T12:58:42;5.30;;;4.90;;
15142;SDS011;7672;50.834;6.286;2023-09-07T13:01:09;5.65;;;4.72;;
15142;SDS011;7672;50.834;6.286;2023-09-07T13:03:37;5.97;;;4.85;;
15142;SDS011;7672;50.834;6.286;2023-09-07T13:06:04;6.82;;;4.55;;
15142;SDS011;7672;50.834;6.286;2023-09-07T13:08:31;5.50;;;5.10;;
15142;SDS011;7672;50.834;6.286;2023-09-07T13:11:02;6.38;;;5.10;;
15142;SDS011;7672;50.834;6.286;2023-09-07T13:13:29;6.28;;;5.00;;
15142;SDS011;7672;50.834;6.286;2023-09-07T13:15:57;5.65;;;5.13;;
15142;SDS011;7672;50.834;6.286;2023-09-07T13:18:25;7.22;;;5.30;;
15142;SDS011;7672;50.834;6.286;2023-09-07T13:20:52;5.25;;;4.78;;
15142;SDS011;7672;50.834;6.286;2023-09-07T13:23:26;6.93;;;5.10;;
15142;SDS011;7672;50.834;6.286;2023-09-07T13:25:58;5.65;;;5.20;;
15142;SDS011;7672;50.834;6.286;2023-09-07T13:28:26;5.55;;;5.05;;
15142;SDS011;7672;50.834;6.286;2023-09-07T13:30:56;7.70;;;5.05;;
15142;SDS011;7672;50.834;6.286;2023-09-07T13:33:24;5.15;;;4.75;;
15142;SDS011;7672;50.834;6.286;2023-09-07T13:35:51;4.90;;;4.50;;
15142;SDS011;7672;50.834;6.286;2023-09-07T13:38:19;5.78;;;5.35;;
15142;SDS011;7672;50.834;6.286;2023-09-07T13:40:46;5.38;;;4.93;;
15142;SDS011;7672;50.834;6.286;2023-09-07T13:43:13;5.47;;;4.97;;
15142;SDS011;7672;50.834;6.286;2023-09-07T13:45:40;5.10;;;4.38;;
15142;SDS011;7672;50.834;6.286;2023-09-07T13:48:07;9.02;;;4.95;;
15142;SDS011;7672;50.834;6.286;2023-09-07T13:50:34;5.40;;;4.90;;
15142;SDS011;7672;50.834;6.286;2023-09-07T13:53:02;8.77;;;5.25;;
15142;SDS011;7672;50.834;6.286;2023-09-07T13:55:29;5.32;;;4.82;;
15142;SDS011;7672;50.834;6.286;2023-09-07T13:57:56;8.65;;;5.28;;
15142;SDS011;7672;50.834;6.286;2023-09-07T14:00:23;6.82;;;4.93;;
15142;SDS011;7672;50.834;6.286;2023-09-07T14:02:50;5.70;;;5.05;;
15142;SDS011;7672;50.834;6.286;2023-09-07T14:05:19;5.38;;;4.97;;
15142;SDS011;7672;50.834;6.286;2023-09-07T14:07:46;9.10;;;5.82;;
15142;SDS011;7672;50.834;6.286;2023-09-07T14:10:13;5.32;;;4.93;;
15142;SDS011;7672;50.834;6.286;2023-09-07T14:12:40;5.47;;;4.97;;
15142;SDS011;7672;50.834;6.286;2023-09-07T14:15:09;6.30;;;4.95;;
15142;SDS011;7672;50.834;6.286;2023-09-07T14:17:36;8.90;;;4.75;;
15142;SDS011;7672;50.834;6.286;2023-09-07T14:20:04;7.35;;;5.20;;
15142;SDS011;7672;50.834;6.286;2023-09-07T14:22:32;5.80;;;5.20;;
15142;SDS011;7672;50.834;6.286;2023-09-07T14:24:59;5.10;;;4.65;;
15142;SDS011;7672;50.834;6.286;2023-09-07T14:27:26;5.45;;;4.95;;
15142;SDS011;7672;50.834;6.286;2023-09-07T14:29:53;7.80;;;4.72;;
15142;SDS011;7672;50.834;6.286;2023-09-07T14:32:20;5.43;;;4.88;;
15142;SDS011;7672;50.834;6.286;2023-09-07T14:34:47;7.22;;;4.97;;
15142;SDS011;7672;50.834;6.286;2023-09-07T14:37:14;8.25;;;5.00;;
15142;SDS011;7672;50.834;6.286;2023-09-07T14:39:42;5.57;;;5.18;;
15142;SDS011;7672;50.834;6.286;2023-09-07T14:42:13;5.45;;;4.75;;
15142;SDS011;7672;50.834;6.286;2023-09-07T14:44:44;5.72;;;5.20;;
15142;SDS011;7672;50.834;6.286;2023-09-07T14:47:12;7.68;;;5.82;;
15142;SDS011;7672;50.834;6.286;2023-09-07T14:49:39;5.75;;;5.00;;
15142;SDS011;7672;50.834;6.286;2023-09-07T14:52:06;5.55;;;5.00;;
15142;SDS011;7672;50.834;6.286;2023-09-07T14:54:33;8.15;;;5.22;;
15142;SDS011;7672;50.834;6.286;2023-09-07T14:57:00;8.60;;;4.68;;
15142;SDS011;7672;50.834;6.286;2023-09-07T14:59:29;7.13;;;4.80;;
15142;SDS011;7672;50.834;6.286;2023-09-07T15:01:56;8.63;;;5.03;;
15142;SDS011;7672;50.834;6.286;2023-09-07T15:04:30;5.32;;;4.75;;
15142;SDS011;7672;50.834;6.286;2023-09-07T15:06:58;9.05;;;5.22;;
15142;SDS011;7672;50.834;6.286;2023-09-07T15:09:25;7.35;;;5.28;;
15142;SDS011;7672;50.834;6.286;2023-09-07T15:11:52;7.60;;;5.47;;
15142;SDS011;7672;50.834;6.286;2023-09-07T15:14:22;7.28;;;4.88;;